Time;durP1;ratioP1;P1;durP2;ratioP2;P2;SDS_P1;SDS_P2;PMS_P1;PMS_P2;Temp;Humidity;BMP_temperature;BMP_pressure;BME280_temperature;BME280_humidity;BME280_pressure;Samples;Min_cycle;Max_cycle;Signal;HPM_P1;HPM_P2
2021/09/02 00:02:06;;;;;;;;;23.50;21.50;;;;;;;;4994488;28;45510;-76
2021/09/02 00:04:31;;;;;;;;;23.75;20.75;;;;;;;;4992107;28;45477;-76
2021/09/02 00:06:57;;;;;;;;;24.25;24.25;;;;;;;;4974383;28;45561;-73
2021/09/02 00:09:23;;;;;;;;;24.75;18.75;;;;;;;;4992111;28;46577;-75
2021/09/02 00:11:48;;;;;;;;;19.50;18.00;;;;;;;;4992581;28;45306;-74
2021/09/02 00:14:13;;;;;;;;;26.00;24.25;;;;;;;;4994826;28;45247;-75
2021/09/02 00:16:38;;;;;;;;;21.50;21.50;;;;;;;;4992401;28;45923;-76
2021/09/02 00:19:03;;;;;;;;;24.00;20.25;;;;;;;;4992194;28;46293;-75
2021/09/02 00:21:29;;;;;;;;;20.00;17.75;;;;;;;;4991785;28;45389;-76
2021/09/02 00:23:54;;;;;;;;;22.00;20.25;;;;;;;;4990903;28;45505;-75
2021/09/02 00:26:19;;;;;;;;;22.25;17.00;;;;;;;;4993733;28;45609;-76
2021/09/02 00:28:44;;;;;;;;;23.00;21.50;;;;;;;;4991289;28;45329;-77
2021/09/02 00:31:10;;;;;;;;;21.75;20.75;;;;;;;;4991906;28;45603;-76
2021/09/02 00:33:35;;;;;;;;;26.25;20.75;;;;;;;;4992131;28;45481;-76
2021/09/02 00:36:00;;;;;;;;;25.25;22.00;;;;;;;;4991921;28;45415;-75
2021/09/02 00:38:25;;;;;;;;;24.00;20.50;;;;;;;;4992726;28;46093;-76
2021/09/02 00:40:50;;;;;;;;;21.25;20.75;;;;;;;;4993608;28;45577;-76
2021/09/02 00:43:16;;;;;;;;;26.75;21.75;;;;;;;;4992213;28;45763;-74
2021/09/02 00:45:41;;;;;;;;;20.50;17.25;;;;;;;;4991288;28;45298;-76
2021/09/02 00:48:06;;;;;;;;;22.00;20.75;;;;;;;;4991624;28;45409;-75
2021/09/02 00:50:32;;;;;;;;;24.00;21.00;;;;;;;;4991848;28;45445;-78
2021/09/02 00:52:58;;;;;;;;;22.75;21.50;;;;;;;;4994219;28;45497;-78
2021/09/02 00:55:23;;;;;;;;;29.25;24.00;;;;;;;;4974231;28;45520;-77
2021/09/02 00:57:48;;;;;;;;;22.50;21.25;;;;;;;;4991598;28;46638;-76
2021/09/02 01:00:15;;;;;;;;;22.50;22.00;;;;;;;;4991758;28;45420;-76
2021/09/02 01:02:41;;;;;;;;;28.50;22.25;;;;;;;;4991190;28;45583;-75
2021/09/02 01:05:07;;;;;;;;;23.25;22.00;;;;;;;;4992521;28;45304;-75
2021/09/02 01:07:33;;;;;;;;;31.25;26.25;;;;;;;;4989849;28;47434;-75
2021/09/02 01:09:59;;;;;;;;;21.75;21.25;;;;;;;;4991080;28;45378;-75
2021/09/02 01:12:29;;;;;;;;;25.50;21.25;;;;;;;;4991566;28;45426;-73
2021/09/02 01:14:54;;;;;;;;;19.75;17.50;;;;;;;;4991673;28;45317;-74
2021/09/02 01:17:21;;;;;;;;;25.00;22.00;;;;;;;;4992635;28;46906;-73
2021/09/02 01:19:47;;;;;;;;;21.25;21.00;;;;;;;;4991847;28;45385;-73
2021/09/02 01:22:12;;;;;;;;;16.00;16.00;;;;;;;;4973722;28;45315;-73
2021/09/02 01:24:38;;;;;;;;;20.00;19.25;;;;;;;;4991330;28;45337;-72
2021/09/02 01:27:03;;;;;;;;;20.25;15.50;;;;;;;;4991379;28;45508;-75
2021/09/02 01:29:28;;;;;;;;;16.50;16.50;;;;;;;;4991952;28;45334;-75
2021/09/02 01:31:54;;;;;;;;;19.75;17.25;;;;;;;;4993130;28;45366;-74
2021/09/02 01:34:20;;;;;;;;;20.25;18.25;;;;;;;;4991058;28;45509;-75
2021/09/02 01:36:46;;;;;;;;;16.50;14.50;;;;;;;;4991198;28;46069;-75
2021/09/02 01:39:16;;;;;;;;;20.50;19.25;;;;;;;;4991340;28;45361;-74
2021/09/02 01:41:42;;;;;;;;;19.25;18.25;;;;;;;;4990671;28;45543;-75
2021/09/02 01:44:07;;;;;;;;;25.25;20.75;;;;;;;;4992722;28;45522;-74
2021/09/02 01:46:32;;;;;;;;;20.00;16.00;;;;;;;;4989544;28;47031;-74
2021/09/02 01:48:57;;;;;;;;;20.00;16.50;;;;;;;;4990914;28;45507;-74
2021/09/02 01:51:22;;;;;;;;;14.75;14.75;;;;;;;;4991291;28;45503;-74
2021/09/02 01:53:47;;;;;;;;;22.00;21.00;;;;;;;;4991535;28;45367;-75
2021/09/02 01:56:13;;;;;;;;;18.00;16.00;;;;;;;;4992621;28;46427;-75
2021/09/02 01:58:38;;;;;;;;;21.25;17.75;;;;;;;;4990988;28;45316;-76
2021/09/02 02:01:03;;;;;;;;;18.75;15.75;;;;;;;;4990984;28;45532;-76
2021/09/02 02:03:28;;;;;;;;;19.00;18.25;;;;;;;;4990643;28;45507;-74
2021/09/02 02:05:53;;;;;;;;;23.00;21.50;;;;;;;;4990853;28;45944;-74
2021/09/02 02:08:19;;;;;;;;;20.75;18.75;;;;;;;;4992119;28;45412;-75
2021/09/02 02:10:44;;;;;;;;;24.75;19.25;;;;;;;;4991888;28;45560;-74
2021/09/02 02:13:09;;;;;;;;;18.75;17.00;;;;;;;;4990947;28;45464;-74
2021/09/02 02:15:34;;;;;;;;;20.25;16.75;;;;;;;;4990617;28;46323;-76
2021/09/02 02:18:00;;;;;;;;;20.50;20.50;;;;;;;;4990540;28;45354;-75
2021/09/02 02:20:25;;;;;;;;;29.75;19.75;;;;;;;;4991736;28;45322;-73
2021/09/02 02:22:50;;;;;;;;;18.75;16.00;;;;;;;;4990651;28;45547;-74
2021/09/02 02:25:16;;;;;;;;;24.25;20.25;;;;;;;;4971457;28;48044;-74
2021/09/02 02:27:42;;;;;;;;;25.00;22.00;;;;;;;;4990566;28;45414;-74
2021/09/02 02:30:11;;;;;;;;;18.25;18.25;;;;;;;;4990712;28;45310;-75
2021/09/02 02:32:36;;;;;;;;;25.50;22.75;;;;;;;;4989808;28;45358;-75
2021/09/02 02:35:02;;;;;;;;;23.25;23.00;;;;;;;;4991730;28;45445;-75
2021/09/02 02:37:27;;;;;;;;;26.00;21.75;;;;;;;;4990323;28;45291;-75
2021/09/02 02:39:52;;;;;;;;;17.00;14.25;;;;;;;;4990842;28;45546;-75
2021/09/02 02:42:17;;;;;;;;;21.50;20.25;;;;;;;;4990722;28;45287;-74
2021/09/02 02:44:42;;;;;;;;;21.25;20.75;;;;;;;;4990597;28;46302;-75
2021/09/02 02:47:08;;;;;;;;;21.00;18.50;;;;;;;;4991844;28;45446;-75
2021/09/02 02:49:33;;;;;;;;;24.50;21.25;;;;;;;;4988637;28;45385;-76
2021/09/02 02:51:58;;;;;;;;;19.50;18.50;;;;;;;;4990106;28;45374;-76
2021/09/02 02:54:24;;;;;;;;;21.50;15.25;;;;;;;;4990094;28;46149;-75
2021/09/02 02:56:49;;;;;;;;;23.25;20.25;;;;;;;;4989972;28;45480;-75
2021/09/02 02:59:14;;;;;;;;;28.00;24.50;;;;;;;;4992425;28;45446;-76
2021/09/02 03:01:39;;;;;;;;;25.50;19.00;;;;;;;;4988247;28;45500;-76
2021/09/02 03:04:04;;;;;;;;;19.75;18.00;;;;;;;;4988427;28;46016;-75
2021/09/02 03:06:30;;;;;;;;;23.00;20.50;;;;;;;;4990113;28;45540;-73
2021/09/02 03:08:55;;;;;;;;;18.75;17.75;;;;;;;;4992034;28;45412;-75
2021/09/02 03:11:20;;;;;;;;;25.50;24.50;;;;;;;;4994783;28;45444;-76
2021/09/02 03:13:45;;;;;;;;;25.75;22.00;;;;;;;;4993926;28;46014;-76
2021/09/02 03:16:11;;;;;;;;;24.25;21.50;;;;;;;;4992623;28;45263;-76
2021/09/02 03:18:36;;;;;;;;;21.00;19.50;;;;;;;;4992767;28;45522;-76
2021/09/02 03:21:01;;;;;;;;;20.25;18.25;;;;;;;;4975236;28;45473;-76
2021/09/02 03:23:27;;;;;;;;;24.50;22.50;;;;;;;;4992926;28;45957;-76
2021/09/02 03:25:52;;;;;;;;;25.25;21.00;;;;;;;;4994391;28;45401;-76
2021/09/02 03:28:17;;;;;;;;;27.00;21.00;;;;;;;;4992659;28;45502;-76
2021/09/02 03:30:42;;;;;;;;;20.50;18.75;;;;;;;;4992460;28;45288;-76
2021/09/02 03:33:07;;;;;;;;;25.75;20.50;;;;;;;;4992819;28;46296;-76
2021/09/02 03:35:33;;;;;;;;;26.00;19.75;;;;;;;;4992683;28;45330;-76
2021/09/02 03:37:58;;;;;;;;;27.50;25.75;;;;;;;;4994940;28;45295;-77
2021/09/02 03:40:23;;;;;;;;;29.25;21.25;;;;;;;;4991193;28;45392;-77
2021/09/02 03:42:48;;;;;;;;;26.25;23.25;;;;;;;;4990959;28;46069;-77
2021/09/02 03:45:13;;;;;;;;;29.75;21.50;;;;;;;;4992459;28;45470;-78
2021/09/02 03:47:44;;;;;;;;;26.50;22.50;;;;;;;;4992031;28;45477;-77
2021/09/02 03:50:09;;;;;;;;;29.25;22.00;;;;;;;;4994515;28;45433;-77
2021/09/02 03:52:34;;;;;;;;;29.50;23.00;;;;;;;;4992318;28;45920;-77
2021/09/02 03:55:00;;;;;;;;;21.00;20.50;;;;;;;;4992513;28;45541;-77
2021/09/02 03:57:25;;;;;;;;;29.75;22.50;;;;;;;;4992450;28;45473;-77
2021/09/02 03:59:50;;;;;;;;;22.25;22.25;;;;;;;;4992801;28;45401;-77
2021/09/02 04:02:15;;;;;;;;;22.00;21.00;;;;;;;;4993814;28;46557;-77
2021/09/02 04:04:40;;;;;;;;;27.75;27.00;;;;;;;;4992776;28;45331;-77
2021/09/02 04:07:06;;;;;;;;;29.75;23.25;;;;;;;;4992340;28;45410;-77
2021/09/02 04:09:31;;;;;;;;;20.50;20.50;;;;;;;;4991888;28;45391;-76
2021/09/02 04:11:57;;;;;;;;;24.25;22.00;;;;;;;;4990020;28;46202;-77
2021/09/02 04:14:22;;;;;;;;;34.00;29.25;;;;;;;;4992609;28;45441;-75
2021/09/02 04:16:47;;;;;;;;;28.75;22.00;;;;;;;;4992994;28;45437;-75
2021/09/02 04:19:12;;;;;;;;;23.75;20.25;;;;;;;;4989925;28;45368;-75
2021/09/02 04:21:38;;;;;;;;;30.00;23.25;;;;;;;;4990766;28;45461;-75
2021/09/02 04:24:03;;;;;;;;;29.75;25.50;;;;;;;;4992154;28;45460;-74
2021/09/02 04:26:28;;;;;;;;;29.50;28.25;;;;;;;;4992279;28;45283;-74
2021/09/02 04:28:53;;;;;;;;;24.50;20.25;;;;;;;;4992883;28;45514;-75
2021/09/02 04:31:18;;;;;;;;;26.75;21.25;;;;;;;;4991417;28;47030;-74
2021/09/02 04:33:44;;;;;;;;;29.25;24.50;;;;;;;;4991460;28;45252;-75
2021/09/02 04:36:09;;;;;;;;;51.50;37.50;;;;;;;;4991909;28;45398;-76
2021/09/02 04:38:34;;;;;;;;;30.50;27.00;;;;;;;;4991865;28;45200;-75
2021/09/02 04:40:59;;;;;;;;;31.25;23.00;;;;;;;;4993289;28;45390;-76
2021/09/02 04:43:24;;;;;;;;;28.75;26.00;;;;;;;;4990543;28;45378;-75
2021/09/02 04:45:50;;;;;;;;;24.75;22.75;;;;;;;;4990546;28;45565;-75
2021/09/02 04:48:16;;;;;;;;;22.75;22.50;;;;;;;;4991144;28;45214;-74
2021/09/02 04:50:41;;;;;;;;;33.00;28.00;;;;;;;;4991421;28;46325;-74
2021/09/02 04:53:07;;;;;;;;;32.25;25.00;;;;;;;;4993205;28;45332;-76
2021/09/02 04:55:32;;;;;;;;;39.25;32.00;;;;;;;;4991261;28;45277;-75
2021/09/02 04:57:57;;;;;;;;;28.50;24.50;;;;;;;;4989332;28;45789;-75
2021/09/02 05:00:22;;;;;;;;;23.00;22.00;;;;;;;;4988997;28;46292;-72
2021/09/02 05:02:47;;;;;;;;;35.25;29.25;;;;;;;;4990870;28;45534;-72
2021/09/02 05:05:13;;;;;;;;;29.75;27.25;;;;;;;;4993138;28;45388;-75
2021/09/02 05:07:38;;;;;;;;;32.25;28.25;;;;;;;;4972847;28;45719;-74
2021/09/02 05:10:04;;;;;;;;;31.50;27.75;;;;;;;;4990241;27;46050;-73
2021/09/02 05:12:29;;;;;;;;;27.25;23.25;;;;;;;;4990249;28;45662;-75
2021/09/02 05:14:54;;;;;;;;;34.25;32.00;;;;;;;;4990895;28;45366;-77
2021/09/02 05:17:19;;;;;;;;;33.00;28.50;;;;;;;;4992459;28;45575;-75
2021/09/02 05:19:45;;;;;;;;;29.25;22.50;;;;;;;;4991367;28;45339;-75
2021/09/02 05:22:13;;;;;;;;;36.75;27.75;;;;;;;;4990174;28;45478;-77
2021/09/02 05:24:38;;;;;;;;;40.25;30.50;;;;;;;;4990446;28;45461;-75
2021/09/02 05:27:03;;;;;;;;;32.25;27.75;;;;;;;;4972924;28;45415;-76
2021/09/02 05:29:29;;;;;;;;;26.25;23.25;;;;;;;;4991051;28;45501;-75
2021/09/02 05:31:54;;;;;;;;;36.00;30.00;;;;;;;;4991302;28;45373;-77
2021/09/02 05:34:19;;;;;;;;;34.50;27.25;;;;;;;;4990227;28;45501;-79
2021/09/02 05:36:44;;;;;;;;;31.75;28.00;;;;;;;;4988438;28;45294;-76
2021/09/02 05:39:09;;;;;;;;;32.25;30.50;;;;;;;;4987832;28;45386;-71
2021/09/02 05:41:34;;;;;;;;;35.00;29.25;;;;;;;;4989410;28;45431;-73
2021/09/02 05:44:00;;;;;;;;;27.50;24.75;;;;;;;;4991531;28;45374;-68
2021/09/02 05:46:25;;;;;;;;;34.50;30.00;;;;;;;;4989341;28;45445;-70
2021/09/02 05:48:50;;;;;;;;;25.25;23.50;;;;;;;;4989916;28;46147;-70
2021/09/02 05:51:15;;;;;;;;;30.75;28.00;;;;;;;;4971728;28;45952;-70
2021/09/02 05:53:41;;;;;;;;;33.00;31.00;;;;;;;;4989495;28;45340;-68
2021/09/02 05:56:06;;;;;;;;;29.75;28.25;;;;;;;;4991726;28;45396;-71
2021/09/02 05:58:31;;;;;;;;;40.25;27.25;;;;;;;;4989492;28;46949;-69
2021/09/02 06:00:56;;;;;;;;;35.00;31.00;;;;;;;;4989086;28;45528;-70
2021/09/02 06:03:22;;;;;;;;;37.75;31.50;;;;;;;;4989506;28;45461;-71
2021/09/02 06:05:47;;;;;;;;;33.25;29.75;;;;;;;;4990116;28;45429;-74
2021/09/02 06:08:12;;;;;;;;;31.75;24.25;;;;;;;;4991008;28;45579;-71
2021/09/02 06:10:37;;;;;;;;;35.75;27.50;;;;;;;;4988673;28;45476;-73
2021/09/02 06:13:03;;;;;;;;;25.50;22.00;;;;;;;;4988970;28;45322;-77
2021/09/02 06:15:28;;;;;;;;;28.25;26.50;;;;;;;;4986985;28;45425;-79
2021/09/02 06:17:53;;;;;;;;;35.50;29.50;;;;;;;;4987578;28;46025;-80
2021/09/02 06:20:19;;;;;;;;;35.25;31.25;;;;;;;;4990373;28;45378;-79
2021/09/02 06:22:44;;;;;;;;;33.75;28.75;;;;;;;;4989047;28;45342;-79
2021/09/02 06:25:09;;;;;;;;;36.00;30.50;;;;;;;;4988722;28;45507;-78
2021/09/02 06:27:36;;;;;;;;;35.00;30.00;;;;;;;;4970746;28;48552;-79
2021/09/02 06:30:01;;;;;;;;;32.75;28.50;;;;;;;;4989093;28;45446;-80
2021/09/02 06:32:26;;;;;;;;;30.50;27.50;;;;;;;;4989256;28;45323;-80
2021/09/02 06:34:51;;;;;;;;;35.25;31.75;;;;;;;;4990977;28;45230;-83
2021/09/02 06:37:17;;;;;;;;;30.50;30.00;;;;;;;;4988408;28;46547;-78
2021/09/02 06:39:42;;;;;;;;;39.25;32.75;;;;;;;;4988184;28;45274;-78
2021/09/02 06:42:07;;;;;;;;;32.00;28.00;;;;;;;;4970953;28;45355;-77
2021/09/02 06:44:32;;;;;;;;;35.75;30.00;;;;;;;;4988785;28;45273;-79
2021/09/02 06:46:58;;;;;;;;;38.50;31.00;;;;;;;;4989757;28;46285;-80
2021/09/02 06:49:23;;;;;;;;;38.50;33.00;;;;;;;;4988454;28;45258;-79
2021/09/02 06:51:48;;;;;;;;;35.00;30.75;;;;;;;;4987605;28;45431;-80
2021/09/02 06:54:14;;;;;;;;;40.50;30.75;;;;;;;;4984500;27;45592;-80
2021/09/02 06:56:39;;;;;;;;;40.75;32.00;;;;;;;;4988244;28;45486;-77
2021/09/02 06:59:04;;;;;;;;;35.50;24.50;;;;;;;;4990476;28;45442;-80
2021/09/02 07:01:29;;;;;;;;;36.25;31.50;;;;;;;;4988871;28;45233;-80
2021/09/02 07:03:54;;;;;;;;;37.50;30.75;;;;;;;;4988900;28;45383;-80
2021/09/02 07:06:20;;;;;;;;;34.00;27.00;;;;;;;;4987829;28;46128;-80
2021/09/02 07:08:45;;;;;;;;;33.50;29.50;;;;;;;;4988864;28;45533;-79
2021/09/02 07:11:10;;;;;;;;;33.50;30.50;;;;;;;;4990622;28;45237;-78
2021/09/02 07:13:35;;;;;;;;;34.50;29.50;;;;;;;;4988570;28;45283;-79
2021/09/02 07:16:00;;;;;;;;;25.75;21.25;;;;;;;;4988892;28;46198;-79
2021/09/02 07:18:26;;;;;;;;;31.25;29.75;;;;;;;;4988199;28;45425;-81
2021/09/02 07:20:51;;;;;;;;;32.50;30.50;;;;;;;;4986469;28;45535;-79
2021/09/02 07:23:16;;;;;;;;;43.25;33.50;;;;;;;;4990209;28;45891;-79
2021/09/02 07:25:41;;;;;;;;;33.75;28.50;;;;;;;;4988723;28;46899;-76
2021/09/02 07:28:07;;;;;;;;;40.25;31.75;;;;;;;;4988350;28;45355;-80
2021/09/02 07:30:32;;;;;;;;;40.00;34.00;;;;;;;;4987998;28;45283;-81
2021/09/02 07:32:57;;;;;;;;;29.75;25.50;;;;;;;;4987298;28;45554;-79
2021/09/02 07:35:23;;;;;;;;;36.75;30.75;;;;;;;;4989053;28;46246;-80
2021/09/02 07:37:48;;;;;;;;;37.75;29.50;;;;;;;;4987894;28;46436;-81
2021/09/02 07:40:14;;;;;;;;;31.00;29.25;;;;;;;;4988420;28;45682;-79
2021/09/02 07:42:39;;;;;;;;;32.75;29.00;;;;;;;;4988006;28;45378;-80
2021/09/02 07:45:04;;;;;;;;;31.00;28.75;;;;;;;;4988070;28;47082;-80
2021/09/02 07:47:31;;;;;;;;;38.25;30.75;;;;;;;;4987485;28;45540;-80
2021/09/02 07:49:56;;;;;;;;;28.75;25.00;;;;;;;;4987311;28;45402;-80
2021/09/02 07:52:21;;;;;;;;;38.25;30.50;;;;;;;;4988326;28;45505;-81
2021/09/02 07:54:47;;;;;;;;;35.50;29.25;;;;;;;;4988971;28;46135;-79
2021/09/02 07:57:12;;;;;;;;;26.50;21.50;;;;;;;;4990288;27;45397;-79
2021/09/02 07:59:37;;;;;;;;;37.25;31.00;;;;;;;;4991052;28;45619;-81
2021/09/02 08:02:02;;;;;;;;;35.25;30.25;;;;;;;;4993594;28;45332;-81
2021/09/02 08:04:27;;;;;;;;;40.75;31.25;;;;;;;;4990762;28;45907;-80
2021/09/02 08:06:53;;;;;;;;;34.25;29.50;;;;;;;;4990677;28;45341;-80
2021/09/02 08:09:18;;;;;;;;;33.25;28.25;;;;;;;;4991105;28;45341;-81
2021/09/02 08:11:43;;;;;;;;;35.00;29.00;;;;;;;;4974660;28;45355;-79
2021/09/02 08:14:09;;;;;;;;;35.00;31.75;;;;;;;;4992700;28;45436;-80
2021/09/02 08:16:34;;;;;;;;;36.75;30.50;;;;;;;;4989814;28;45424;-81
2021/09/02 08:18:59;;;;;;;;;32.50;28.50;;;;;;;;4991067;28;45299;-80
2021/09/02 08:21:26;;;;;;;;;32.75;30.00;;;;;;;;4988345;28;45567;-79
2021/09/02 08:23:52;;;;;;;;;32.25;29.25;;;;;;;;4991092;28;46363;-80
2021/09/02 08:26:17;;;;;;;;;35.25;28.50;;;;;;;;4992602;28;45299;-81
2021/09/02 08:28:42;;;;;;;;;29.50;25.75;;;;;;;;4992134;28;45500;-78
2021/09/02 08:31:07;;;;;;;;;39.25;30.75;;;;;;;;4990872;28;45381;-78
2021/09/02 08:33:33;;;;;;;;;29.25;27.25;;;;;;;;4990230;28;45839;-79
2021/09/02 08:35:58;;;;;;;;;31.00;26.75;;;;;;;;4991178;28;45498;-79
2021/09/02 08:38:24;;;;;;;;;26.00;24.50;;;;;;;;4991853;28;45399;-79
2021/09/02 08:40:49;;;;;;;;;28.50;24.50;;;;;;;;4990546;28;45444;-79
2021/09/02 08:43:16;;;;;;;;;28.00;24.00;;;;;;;;4990605;28;45518;-78
2021/09/02 08:45:41;;;;;;;;;30.00;22.75;;;;;;;;4989696;28;45375;-80
2021/09/02 08:48:08;;;;;;;;;28.50;27.50;;;;;;;;4984908;28;45451;-78
2021/09/02 08:50:35;;;;;;;;;25.00;21.75;;;;;;;;4991227;28;45353;-77
2021/09/02 08:53:00;;;;;;;;;33.75;30.00;;;;;;;;4990370;28;45335;-80
2021/09/02 08:55:26;;;;;;;;;32.25;30.25;;;;;;;;4988182;28;45380;-80
2021/09/02 08:57:52;;;;;;;;;15.50;8.00;;;;;;;;4990285;27;45722;-80
2021/09/02 09:00:19;;;;;;;;;29.75;27.00;;;;;;;;4990332;28;46011;-80
2021/09/02 09:02:46;;;;;;;;;34.00;29.50;;;;;;;;4981681;28;46302;-81
2021/09/02 09:05:13;;;;;;;;;36.00;29.00;;;;;;;;4987607;28;45462;-80
2021/09/02 09:07:44;;;;;;;;;37.00;27.25;;;;;;;;4989419;28;45236;-79
2021/09/02 09:10:15;;;;;;;;;26.75;25.50;;;;;;;;4990429;28;45409;-79
2021/09/02 09:12:44;;;;;;;;;31.25;24.25;;;;;;;;4989910;28;46164;-79
2021/09/02 09:15:15;;;;;;;;;25.25;23.00;;;;;;;;4990437;28;45345;-79
2021/09/02 09:17:40;;;;;;;;;30.75;22.50;;;;;;;;4990400;28;45327;-79
2021/09/02 09:20:06;;;;;;;;;18.00;18.00;;;;;;;;4991258;28;45408;-79
2021/09/02 09:22:33;;;;;;;;;27.00;22.75;;;;;;;;4989985;28;46170;-78
2021/09/02 09:25:00;;;;;;;;;27.00;25.00;;;;;;;;4989804;28;45409;-79
2021/09/02 09:27:31;;;;;;;;;25.25;20.00;;;;;;;;4989065;28;45452;-79
2021/09/02 09:30:16;;;;;;;;;26.75;22.25;;;;;;;;4988941;28;45390;-80
2021/09/02 09:33:02;;;;;;;;;27.75;23.25;;;;;;;;4988300;28;46077;-79
2021/09/02 09:35:28;;;;;;;;;28.00;24.00;;;;;;;;4988444;28;45553;-80
2021/09/02 09:38:05;;;;;;;;;22.50;18.75;;;;;;;;4991223;28;45414;-73
2021/09/02 09:40:31;;;;;;;;;67.00;46.50;;;;;;;;4989840;28;45442;-74
2021/09/02 09:42:56;;;;;;;;;28.00;19.50;;;;;;;;4989822;28;45577;-77
2021/09/02 09:45:33;;;;;;;;;23.50;22.00;;;;;;;;4990071;28;45463;-77
2021/09/02 09:47:58;;;;;;;;;26.25;22.50;;;;;;;;4989368;28;45402;-76
2021/09/02 09:50:24;;;;;;;;;31.50;22.75;;;;;;;;4972959;28;45328;-75
2021/09/02 09:52:49;;;;;;;;;22.25;21.75;;;;;;;;4990753;28;46269;-75
2021/09/02 09:55:18;;;;;;;;;21.50;19.25;;;;;;;;4985297;27;45217;-75
2021/09/02 09:57:44;;;;;;;;;17.50;17.50;;;;;;;;4979837;28;45376;-76
2021/09/02 10:00:14;;;;;;;;;28.00;23.50;;;;;;;;4974276;28;45429;-77
2021/09/02 10:02:40;;;;;;;;;22.50;19.50;;;;;;;;4988320;28;47207;-77
2021/09/02 10:05:07;;;;;;;;;22.00;18.00;;;;;;;;4990266;28;45368;-77
2021/09/02 10:07:34;;;;;;;;;27.25;22.50;;;;;;;;4988101;28;45326;-76
2021/09/02 10:09:59;;;;;;;;;18.75;18.50;;;;;;;;4987077;28;46111;-77
2021/09/02 10:12:24;;;;;;;;;23.75;22.25;;;;;;;;4986439;28;45964;-78
2021/09/02 10:14:50;;;;;;;;;22.50;21.00;;;;;;;;4970095;28;45637;-78
2021/09/02 10:17:15;;;;;;;;;19.25;17.00;;;;;;;;4989703;28;45892;-77
2021/09/02 10:19:41;;;;;;;;;22.25;18.75;;;;;;;;4988299;28;45424;-76
2021/09/02 10:22:07;;;;;;;;;25.00;20.75;;;;;;;;4988080;28;46104;-75
2021/09/02 10:24:37;;;;;;;;;28.25;25.00;;;;;;;;4988261;28;45394;-75
2021/09/02 10:27:18;;;;;;;;;17.50;16.75;;;;;;;;4987990;28;45401;-78
2021/09/02 10:29:43;;;;;;;;;20.25;19.50;;;;;;;;4989411;28;45785;-76
2021/09/02 10:32:24;;;;;;;;;23.00;19.25;;;;;;;;4972476;28;46098;-76
2021/09/02 10:34:50;;;;;;;;;17.25;15.75;;;;;;;;4989858;28;45526;-77
2021/09/02 10:37:33;;;;;;;;;17.50;17.50;;;;;;;;4987792;28;46190;-75
2021/09/02 10:39:58;;;;;;;;;20.25;19.25;;;;;;;;4986532;28;45497;-76
2021/09/02 10:42:44;;;;;;;;;20.75;17.75;;;;;;;;4987052;28;45530;-76
2021/09/02 10:45:24;;;;;;;;;20.25;17.25;;;;;;;;4968232;28;45347;-77
2021/09/02 10:47:49;;;;;;;;;19.00;17.00;;;;;;;;4977512;28;45320;-77
2021/09/02 10:50:17;;;;;;;;;16.00;16.00;;;;;;;;4990635;28;45248;-77
2021/09/02 10:52:43;;;;;;;;;16.25;15.75;;;;;;;;4988303;28;46384;-76
2021/09/02 10:55:27;;;;;;;;;17.75;16.75;;;;;;;;4988869;28;45466;-76
2021/09/02 10:57:52;;;;;;;;;15.50;14.50;;;;;;;;4986076;28;45751;-76
2021/09/02 11:00:35;;;;;;;;;18.75;16.25;;;;;;;;4987316;28;45282;-76
2021/09/02 11:03:17;;;;;;;;;11.00;11.00;;;;;;;;4957294;28;46591;-75
2021/09/02 11:05:43;;;;;;;;;15.00;15.00;;;;;;;;4988673;28;45535;-77
2021/09/02 11:08:08;;;;;;;;;16.25;16.25;;;;;;;;4990596;28;45259;-76
2021/09/02 11:10:34;;;;;;;;;20.50;19.00;;;;;;;;4988565;28;45412;-77
2021/09/02 11:13:01;;;;;;;;;14.50;12.25;;;;;;;;4988379;28;45985;-76
2021/09/02 11:15:27;;;;;;;;;14.75;13.00;;;;;;;;4988201;28;45394;-76
2021/09/02 11:17:54;;;;;;;;;17.50;15.50;;;;;;;;4988501;28;45405;-77
2021/09/02 11:20:23;;;;;;;;;17.00;13.75;;;;;;;;4989709;28;45367;-78
2021/09/02 11:22:51;;;;;;;;;17.00;15.00;;;;;;;;4989187;28;46493;-76
2021/09/02 11:25:16;;;;;;;;;18.50;17.25;;;;;;;;4987524;28;45404;-75
2021/09/02 11:27:42;;;;;;;;;14.75;14.75;;;;;;;;4985998;28;45476;-76
2021/09/02 11:30:22;;;;;;;;;12.33;11.00;;;;;;;;4988611;28;45496;-77
2021/09/02 11:32:51;;;;;;;;;22.25;21.25;;;;;;;;4975592;28;45603;-77
2021/09/02 11:35:17;;;;;;;;;20.25;20.25;;;;;;;;4989143;28;45386;-77
2021/09/02 11:37:44;;;;;;;;;14.25;13.50;;;;;;;;4991495;28;45425;-77
2021/09/02 11:40:10;;;;;;;;;12.25;12.00;;;;;;;;4973589;28;45513;-77
2021/09/02 11:42:36;;;;;;;;;13.50;10.50;;;;;;;;4990615;28;46395;-77
2021/09/02 11:45:01;;;;;;;;;15.75;12.00;;;;;;;;4991090;28;45383;-79
2021/09/02 11:47:34;;;;;;;;;12.75;12.75;;;;;;;;4991039;28;45290;-76
2021/09/02 11:50:00;;;;;;;;;12.75;11.25;;;;;;;;4992372;28;45387;-75
2021/09/02 11:52:35;;;;;;;;;16.25;13.75;;;;;;;;4986779;28;45942;-74
2021/09/02 11:55:01;;;;;;;;;11.75;11.75;;;;;;;;4990924;28;45547;-75
2021/09/02 11:57:26;;;;;;;;;10.75;10.75;;;;;;;;4988986;28;45405;-77
2021/09/02 11:59:51;;;;;;;;;12.75;10.75;;;;;;;;4991246;28;46842;-76
2021/09/02 12:02:17;;;;;;;;;20.00;13.25;;;;;;;;4992299;28;46041;-78
2021/09/02 12:04:46;;;;;;;;;20.00;18.00;;;;;;;;4990251;28;45468;-79
2021/09/02 12:07:14;;;;;;;;;12.25;12.25;;;;;;;;4988481;28;45384;-77
2021/09/02 12:09:43;;;;;;;;;9.75;9.75;;;;;;;;4989079;28;45373;-76
2021/09/02 12:12:08;;;;;;;;;16.25;16.25;;;;;;;;4972624;28;48525;-76
2021/09/02 12:14:35;;;;;;;;;11.50;9.75;;;;;;;;4990742;28;45338;-76
2021/09/02 12:17:01;;;;;;;;;12.00;12.00;;;;;;;;4993077;28;45412;-74
2021/09/02 12:19:27;;;;;;;;;12.75;11.75;;;;;;;;4990814;28;45469;-75
2021/09/02 12:21:52;;;;;;;;;13.50;10.75;;;;;;;;4990590;28;45794;-75
2021/09/02 12:24:17;;;;;;;;;10.75;9.75;;;;;;;;4990776;28;45404;-75
2021/09/02 12:26:58;;;;;;;;;14.75;14.00;;;;;;;;4990530;28;45366;-76
2021/09/02 12:29:25;;;;;;;;;8.25;6.25;;;;;;;;4989025;28;45485;-76
2021/09/02 12:31:53;;;;;;;;;16.25;12.00;;;;;;;;4991097;28;46095;-77
2021/09/02 12:34:18;;;;;;;;;13.00;12.00;;;;;;;;4989886;28;45523;-76
2021/09/02 12:36:45;;;;;;;;;13.00;11.60;;;;;;;;4990133;28;45382;-78
2021/09/02 12:39:11;;;;;;;;;11.00;9.50;;;;;;;;4990353;28;45445;-76
2021/09/02 12:41:39;;;;;;;;;15.00;12.50;;;;;;;;4989273;28;46234;-76
2021/09/02 12:44:12;;;;;;;;;17.25;13.25;;;;;;;;4991884;28;45378;-76
2021/09/02 12:46:47;;;;;;;;;13.75;13.75;;;;;;;;4988264;28;45443;-75
2021/09/02 12:49:12;;;;;;;;;10.75;10.50;;;;;;;;4988665;28;45372;-75
2021/09/02 12:51:38;;;;;;;;;10.25;9.75;;;;;;;;4990103;28;46807;-75
2021/09/02 12:54:03;;;;;;;;;7.50;7.50;;;;;;;;4990179;28;45380;-77
2021/09/02 12:56:36;;;;;;;;;10.50;9.50;;;;;;;;4990647;28;45252;-76
2021/09/02 12:59:01;;;;;;;;;11.50;11.25;;;;;;;;4990712;28;45450;-77
2021/09/02 13:01:26;;;;;;;;;12.00;12.00;;;;;;;;4989803;28;45958;-77
2021/09/02 13:03:52;;;;;;;;;12.25;10.25;;;;;;;;4990324;28;45520;-76
2021/09/02 13:06:17;;;;;;;;;11.75;11.75;;;;;;;;4990178;28;45312;-77
2021/09/02 13:08:42;;;;;;;;;12.00;11.00;;;;;;;;4989807;28;45430;-75
2021/09/02 13:11:07;;;;;;;;;11.25;9.00;;;;;;;;4991917;28;46157;-77
2021/09/02 13:13:32;;;;;;;;;9.50;9.50;;;;;;;;4989525;28;45433;-76
2021/09/02 13:15:58;;;;;;;;;13.25;13.25;;;;;;;;4989722;28;45527;-77
2021/09/02 13:18:23;;;;;;;;;12.50;11.50;;;;;;;;4990192;28;45555;-78
2021/09/02 13:20:48;;;;;;;;;10.00;10.00;;;;;;;;4990550;28;45352;-79
2021/09/02 13:23:16;;;;;;;;;9.25;9.25;;;;;;;;4991454;28;45417;-80
2021/09/02 13:25:41;;;;;;;;;12.75;12.75;;;;;;;;4988420;28;45306;-79
2021/09/02 13:28:06;;;;;;;;;14.75;12.75;;;;;;;;4988505;28;45443;-79
2021/09/02 13:30:31;;;;;;;;;11.50;10.50;;;;;;;;4989249;28;45391;-76
2021/09/02 13:32:57;;;;;;;;;11.75;11.75;;;;;;;;4988814;28;45358;-76
2021/09/02 13:35:22;;;;;;;;;9.25;6.00;;;;;;;;4991812;28;45423;-78
2021/09/02 13:37:48;;;;;;;;;10.00;9.00;;;;;;;;4989917;28;45367;-77
2021/09/02 13:40:17;;;;;;;;;12.00;11.00;;;;;;;;4989063;28;46164;-76
2021/09/02 13:42:43;;;;;;;;;12.50;10.50;;;;;;;;4989164;28;45545;-76
2021/09/02 13:45:09;;;;;;;;;11.50;9.50;;;;;;;;4972605;28;45325;-77
2021/09/02 13:47:34;;;;;;;;;9.00;8.00;;;;;;;;4989843;28;45236;-78
2021/09/02 13:49:59;;;;;;;;;12.00;12.00;;;;;;;;4991894;28;45868;-77
2021/09/02 13:52:24;;;;;;;;;9.75;8.75;;;;;;;;4988761;28;45444;-77
2021/09/02 13:54:50;;;;;;;;;8.50;6.75;;;;;;;;4990214;28;45243;-78
2021/09/02 13:57:15;;;;;;;;;10.25;10.25;;;;;;;;4989883;28;45393;-77
2021/09/02 13:59:40;;;;;;;;;17.75;16.50;;;;;;;;4989560;28;46138;-76
2021/09/02 14:02:05;;;;;;;;;10.00;10.00;;;;;;;;4991751;28;45345;-74
2021/09/02 14:04:30;;;;;;;;;9.25;9.25;;;;;;;;4987612;28;45543;-75
2021/09/02 14:06:56;;;;;;;;;12.00;9.25;;;;;;;;4987540;28;45794;-75
2021/09/02 14:09:21;;;;;;;;;8.50;8.00;;;;;;;;4988722;28;46385;-77
2021/09/02 14:11:47;;;;;;;;;8.50;8.50;;;;;;;;4990142;28;45336;-78
2021/09/02 14:14:14;;;;;;;;;9.25;9.25;;;;;;;;4987551;28;45352;-76